Time;durP1;ratioP1;P1;durP2;ratioP2;P2;SDS_P1;SDS_P2;PMS_P1;PMS_P2;Temp;Humidity;BMP_temperature;BMP_pressure;BME280_temperature;BME280_humidity;BME280_pressure;Samples;Min_cycle;Max_cycle;Signal;HPM_P1;HPM_P2
2023/10/13 00:02:03;;;;;;;2.50;1.20;;;;;;;7.55;88.03;99194.47;4899813;29;20036;-66
2023/10/13 00:04:29;;;;;;;3.20;1.50;;;;;;;7.56;89.07;99190.81;4899310;29;20500;-65
2023/10/13 00:06:59;;;;;;;1.87;1.27;;;;;;;7.15;89.21;99138.22;4899094;29;20040;-65
2023/10/13 00:09:32;;;;;;;2.87;1.20;;;;;;;7.51;89.88;99193.16;4899626;29;20131;-67
2023/10/13 00:11:58;;;;;;;3.97;1.20;;;;;;;7.46;90.16;99200.81;4899225;29;20095;-64
2023/10/13 00:14:33;;;;;;;2.83;1.33;;;;;;;7.52;90.20;99226.59;4882379;29;20492;-64
2023/10/13 00:17:15;;;;;;;2.43;1.33;;;;;;;7.46;91.24;99224.66;4899481;29;20545;-65
2023/10/13 00:19:51;;;;;;;2.23;1.10;;;;;;;7.42;90.81;99233.97;4899114;29;20096;-65
2023/10/13 00:22:19;;;;;;;4.83;1.50;;;;;;;7.22;91.61;99201.84;4897787;29;20041;-64
2023/10/13 00:24:46;;;;;;;2.20;1.40;;;;;;;7.29;91.45;99245.19;4899022;29;20033;-64
2023/10/13 00:27:29;;;;;;;4.20;1.37;;;;;;;7.10;88.73;99235.88;4898901;29;20139;-65
2023/10/13 00:32:42;;;;;;;2.63;1.33;;;;;;;6.80;86.11;99187.31;4899374;29;20032;-65
2023/10/13 00:35:14;;;;;;;1.50;1.20;;;;;;;7.27;83.35;99286.09;4898789;29;20044;-66
2023/10/13 00:37:44;;;;;;;2.27;1.03;;;;;;;7.25;81.90;99283.63;4898610;29;20284;-66
2023/10/13 00:40:41;;;;;;;2.07;1.10;;;;;;;7.20;81.71;99274.53;4897122;29;20040;-65
2023/10/13 00:45:55;;;;;;;1.73;1.20;;;;;;;7.28;82.47;99316.84;4898742;29;20044;-64
2023/10/13 00:48:29;;;;;;;2.30;1.33;;;;;;;7.18;82.28;99313.59;4899277;29;20044;-65
2023/10/13 00:50:56;;;;;;;1.77;1.00;;;;;;;6.89;83.28;99272.75;4898978;29;20088;-63
2023/10/13 00:53:25;;;;;;;1.33;1.10;;;;;;;7.08;83.69;99329.72;4899208;29;20040;-65
2023/10/13 00:55:51;;;;;;;2.53;1.05;;;;;;;6.70;83.99;99305.78;4898805;29;20518;-64
2023/10/13 00:58:21;;;;;;;1.63;1.30;;;;;;;6.87;84.52;99337.44;4898425;29;20047;-66
2023/10/13 01:00:56;;;;;;;3.00;1.00;;;;;;;6.91;86.48;99339.56;4898092;29;20041;-64
2023/10/13 01:03:26;;;;;;;2.10;1.30;;;;;;;6.75;87.10;99339.66;4898421;29;20044;-64
2023/10/13 01:05:55;;;;;;;2.20;1.40;;;;;;;6.78;86.72;99365.78;4898339;29;20037;-64
2023/10/13 01:08:37;;;;;;;2.35;1.52;;;;;;;6.79;86.05;99362.13;4898647;29;20036;-64
2023/10/13 01:11:07;;;;;;;3.03;1.67;;;;;;;6.71;87.29;99368.28;4898467;29;20055;-65
2023/10/13 01:13:36;;;;;;;3.77;1.00;;;;;;;6.60;88.79;99347.47;4896758;29;20036;-64
2023/10/13 01:16:04;;;;;;;1.80;1.23;;;;;;;6.68;86.89;99395.09;4896680;29;20040;-65
2023/10/13 01:18:29;;;;;;;1.20;1.00;;;;;;;6.70;86.68;99389.63;4897973;29;20044;-66
2023/10/13 01:20:58;;;;;;;1.97;1.77;;;;;;;6.64;87.10;99382.34;4898686;29;20380;-66
2023/10/13 01:23:28;;;;;;;1.90;1.50;;;;;;;6.55;86.73;99381.56;4899314;29;20516;-63
2023/10/13 01:25:56;;;;;;;1.83;1.30;;;;;;;6.63;85.86;99415.09;4899017;29;20044;-64
2023/10/13 01:28:23;;;;;;;3.42;1.48;;;;;;;6.57;86.35;99395.44;4898640;29;20060;-65
2023/10/13 01:30:53;;;;;;;1.27;1.10;;;;;;;6.29;88.08;99365.09;4898269;29;20124;-66
2023/10/13 01:33:26;;;;;;;2.63;1.10;;;;;;;6.35;88.58;99390.88;4897926;29;20029;-67
2023/10/13 01:35:55;;;;;;;2.93;1.20;;;;;;;6.41;88.77;99429.88;4897961;29;20047;-65
2023/10/13 01:38:21;;;;;;;3.07;1.20;;;;;;;6.15;88.32;99387.78;4897355;29;20059;-67
2023/10/13 01:40:51;;;;;;;2.80;1.20;;;;;;;6.22;87.93;99417.84;4897657;29;20064;-67
2023/10/13 01:43:17;;;;;;;1.83;1.00;;;;;;;6.31;87.71;99443.25;4896287;29;20044;-65
2023/10/13 01:45:49;;;;;;;1.37;1.00;;;;;;;6.29;88.46;99444.44;4896306;29;20037;-64
2023/10/13 01:48:21;;;;;;;3.00;1.27;;;;;;;6.08;88.95;99427.28;4897602;29;20032;-67
2023/10/13 01:51:29;;;;;;;1.40;1.30;;;;;;;6.12;89.45;99431.25;4897788;29;20060;-65
2023/10/13 01:53:37;;;;;;;1.50;1.40;;;;;;;6.20;88.71;99456.84;4894160;29;20143;-67
2023/10/13 01:56:10;;;;;;;2.03;1.37;;;;;;;6.06;89.76;99444.28;4896218;29;20044;-65
2023/10/13 01:58:42;;;;;;;1.30;1.00;;;;;;;6.10;90.29;99467.59;4897461;29;20041;-63
2023/10/13 02:01:09;;;;;;;3.27;1.07;;;;;;;6.09;89.65;99478.31;4897183;29;20484;-66
2023/10/13 02:03:36;;;;;;;1.37;1.27;;;;;;;6.01;90.46;99479.13;4895845;29;20507;-65
2023/10/13 02:06:04;;;;;;;1.53;1.00;;;;;;;6.04;89.85;99483.25;4897878;29;20074;-65
2023/10/13 02:08:30;;;;;;;2.20;1.00;;;;;;;5.92;91.43;99479.28;4897267;29;20137;-66
2023/10/13 02:10:58;;;;;;;1.90;1.20;;;;;;;5.96;91.74;99496.47;4896179;29;20033;-66
2023/10/13 02:13:26;;;;;;;1.13;1.02;;;;;;;5.82;92.25;99496.09;4897859;29;20033;-65
2023/10/13 02:16:03;;;;;;;1.50;1.23;;;;;;;5.89;91.87;99520.91;4897226;29;20051;-65
2023/10/13 02:18:42;;;;;;;2.93;1.30;;;;;;;5.92;90.71;99506.53;4896189;29;20541;-65
2023/10/13 02:21:14;;;;;;;1.88;1.08;;;;;;;5.56;91.22;99461.06;4897342;29;20064;-65
2023/10/13 02:23:44;;;;;;;2.97;1.40;;;;;;;5.93;91.20;99512.66;4897101;29;20127;-66
2023/10/13 02:26:29;;;;;;;6.07;1.47;;;;;;;5.87;89.49;99493.78;4896906;29;20076;-64
2023/10/13 02:28:57;;;;;;;1.30;1.20;;;;;;;5.92;88.42;99516.28;4896945;29;20427;-64
2023/10/13 02:31:24;;;;;;;1.57;1.33;;;;;;;6.00;88.87;99530.34;4896989;29;20488;-64
2023/10/13 02:33:50;;;;;;;1.40;1.30;;;;;;;5.95;88.75;99540.56;4896944;29;20408;-66
2023/10/13 02:36:22;;;;;;;1.60;1.23;;;;;;;5.85;88.85;99537.22;4896785;29;20044;-66
2023/10/13 02:38:50;;;;;;;1.53;1.10;;;;;;;5.67;88.47;99510.09;4896418;29;20054;-66
2023/10/13 02:41:28;;;;;;;4.85;1.23;;;;;;;5.83;89.01;99555.88;4895682;29;20055;-65
2023/10/13 02:43:56;;;;;;;1.58;1.17;;;;;;;5.78;89.53;99550.25;4897148;29;20094;-66
2023/10/13 02:46:22;;;;;;;2.70;1.33;;;;;;;5.87;89.38;99572.25;4896629;29;20096;-64
2023/10/13 02:48:57;;;;;;;1.40;1.10;;;;;;;5.48;88.85;99529.66;4896557;29;20051;-64
2023/10/13 02:51:31;;;;;;;1.10;0.90;;;;;;;5.74;90.09;99571.84;4896884;29;20053;-66
2023/10/13 02:54:02;;;;;;;1.87;1.37;;;;;;;5.82;89.37;99607.06;4897366;29;20054;-67
2023/10/13 02:56:29;;;;;;;1.33;0.93;;;;;;;5.75;89.23;99582.25;4895486;29;20044;-63
2023/10/13 02:59:04;;;;;;;3.40;1.17;;;;;;;5.80;88.75;99582.63;4895968;29;20045;-65
2023/10/13 03:01:35;;;;;;;3.27;1.00;;;;;;;5.81;88.59;99600.13;4896225;29;20492;-64
2023/10/13 03:04:08;;;;;;;1.33;1.23;;;;;;;5.79;88.61;99586.25;4898801;29;20036;-65
2023/10/13 03:06:35;;;;;;;2.53;1.00;;;;;;;5.84;89.13;99596.34;4899042;29;20449;-65
2023/10/13 03:09:21;;;;;;;1.40;1.20;;;;;;;5.84;89.18;99609.56;4901034;29;20051;-64
2023/10/13 03:11:48;;;;;;;2.43;1.17;;;;;;;5.84;89.21;99606.91;4900251;29;20567;-64
2023/10/13 03:14:31;;;;;;;2.30;1.30;;;;;;;5.75;90.30;99605.22;4900197;29;20079;-64
2023/10/13 03:17:13;;;;;;;1.30;1.10;;;;;;;5.68;90.52;99623.50;4904274;29;20032;-65
2023/10/13 03:19:46;;;;;;;1.87;1.27;;;;;;;5.71;90.66;99620.56;4900938;29;20186;-64
2023/10/13 03:22:12;;;;;;;3.20;1.23;;;;;;;5.65;91.25;99618.56;4899951;29;20044;-66
2023/10/13 03:24:48;;;;;;;0.90;0.90;;;;;;;5.82;91.47;99644.06;4900901;29;20123;-64
2023/10/13 03:27:17;;;;;;;4.30;1.43;;;;;;;5.85;90.47;99656.13;4900163;29;20032;-64
2023/10/13 03:29:54;;;;;;;1.63;1.10;;;;;;;5.85;90.94;99658.78;4900020;29;20048;-66
2023/10/13 03:32:20;;;;;;;1.23;1.13;;;;;;;5.87;91.60;99673.47;4898593;29;20043;-65
2023/10/13 03:35:07;;;;;;;1.57;1.10;;;;;;;5.84;91.62;99673.78;4899851;29;20044;-65
2023/10/13 03:37:37;;;;;;;1.87;1.03;;;;;;;5.73;92.34;99670.59;4900001;29;20036;-65
2023/10/13 03:43:04;;;;;;;2.70;1.87;;;;;;;5.95;92.00;99701.78;4899822;29;20036;-65
2023/10/13 03:46:00;;;;;;;1.93;1.00;;;;;;;5.95;92.60;99708.88;4899666;29;20059;-63
2023/10/13 03:51:03;;;;;;;2.50;1.03;;;;;;;5.96;94.61;99719.28;4899437;29;20444;-65
2023/10/13 03:53:33;;;;;;;2.10;1.30;;;;;;;5.52;95.23;99660.44;4899598;29;20089;-63
2023/10/13 03:56:14;;;;;;;1.60;1.17;;;;;;;5.80;95.13;99709.44;4899610;29;20176;-65
2023/10/13 03:58:45;;;;;;;0.80;0.70;;;;;;;5.57;96.21;99661.63;4899807;29;20052;-65
2023/10/13 04:01:16;;;;;;;1.40;1.30;;;;;;;5.91;97.49;99737.44;4899390;29;20052;-67
2023/10/13 04:03:56;;;;;;;1.57;1.10;;;;;;;5.96;97.52;99740.44;4899346;29;20036;-65
2023/10/13 04:06:51;;;;;;;1.90;0.93;;;;;;;5.92;98.23;99743.53;4899106;29;20119;-66
2023/10/13 04:17:15;;;;;;;2.90;1.30;;;;;;;6.06;100.00;99761.44;4899458;29;20051;-64
2023/10/13 04:23:18;;;;;;;1.43;1.30;;;;;;;5.93;100.00;99769.81;4899014;29;20036;-65
2023/10/13 04:36:16;;;;;;;1.85;1.15;;;;;;;5.93;100.00;99776.91;4899880;29;20032;-68
2023/10/13 04:47:21;;;;;;;1.40;1.23;;;;;;;6.01;100.00;99809.50;4878374;29;20482;-65
2023/10/13 04:52:26;;;;;;;1.33;1.10;;;;;;;6.25;100.00;99855.56;4899199;29;20056;-68
2023/10/13 04:54:59;;;;;;;2.27;1.47;;;;;;;6.33;98.71;99852.97;4899733;29;20051;-67
2023/10/13 05:00:54;;;;;;;2.17;1.13;;;;;;;6.26;96.63;99823.69;4898305;29;20493;-68
2023/10/13 05:51:43;;;;;;;3.87;1.70;;;;;;;7.42;92.41;99967.72;4897307;29;19974;-67
2023/10/13 06:29:55;;;;;;;3.23;1.80;;;;;;;8.01;89.68;100042.72;4896790;29;20082;-68
2023/10/13 06:32:25;;;;;;;1.67;1.45;;;;;;;7.93;89.47;100035.56;4896654;29;20123;-69
2023/10/13 06:35:18;;;;;;;1.70;1.37;;;;;;;8.17;89.63;100063.13;4897142;29;20048;-67
2023/10/13 06:37:44;;;;;;;1.87;1.30;;;;;;;8.02;89.85;100045.19;4896748;29;20415;-65
2023/10/13 06:40:33;;;;;;;2.73;1.17;;;;;;;8.14;89.80;100058.16;4897222;29;20044;-67
2023/10/13 06:43:12;;;;;;;2.90;1.20;;;;;;;7.92;89.54;100071.03;4896887;29;20186;-66
2023/10/13 06:45:43;;;;;;;2.37;1.20;;;;;;;7.74;90.66;100078.25;4881522;29;20642;-65
2023/10/13 06:48:14;;;;;;;2.47;1.30;;;;;;;7.81;90.53;100094.38;4896581;29;20553;-67
2023/10/13 06:50:41;;;;;;;4.77;1.27;;;;;;;7.83;90.26;100087.09;4896638;29;20159;-67
2023/10/13 06:53:07;;;;;;;5.63;1.30;;;;;;;7.69;90.40;100044.28;4896422;29;20211;-68
2023/10/13 06:55:39;;;;;;;3.87;1.40;;;;;;;7.88;89.32;100052.97;4896664;29;20060;-68
2023/10/13 06:58:07;;;;;;;7.17;3.00;;;;;;;8.23;87.48;100087.16;4896651;29;20044;-68
2023/10/13 07:00:34;;;;;;;2.30;1.60;;;;;;;8.28;86.77;100103.41;4896611;29;20041;-66
2023/10/13 07:03:17;;;;;;;2.20;1.38;;;;;;;8.20;87.21;100092.81;4896404;29;20104;-67
2023/10/13 07:05:44;;;;;;;1.57;1.20;;;;;;;8.05;86.94;100081.16;4895469;29;20050;-65
2023/10/13 07:08:20;;;;;;;1.67;1.33;;;;;;;8.26;86.48;100109.88;4896573;29;20040;-69
2023/10/13 07:11:13;;;;;;;6.43;1.27;;;;;;;8.15;85.79;100089.81;4896368;29;20496;-67
2023/10/13 07:13:39;;;;;;;2.47;1.10;;;;;;;8.27;84.89;100101.75;4896370;29;20499;-68
2023/10/13 07:16:08;;;;;;;2.97;1.50;;;;;;;8.32;85.75;100115.34;4896354;29;20064;-69
2023/10/13 07:18:41;;;;;;;1.98;1.52;;;;;;;8.35;86.09;100117.72;4896655;29;20067;-70
2023/10/13 07:21:11;;;;;;;3.90;1.17;;;;;;;8.32;85.90;100131.28;4896449;29;20045;-68
2023/10/13 07:23:38;;;;;;;1.60;0.90;;;;;;;8.23;84.98;100126.97;4896429;29;20053;-70
2023/10/13 07:26:08;;;;;;;2.17;1.67;;;;;;;8.19;85.13;100112.38;4900905;29;20044;-68
2023/10/13 07:28:43;;;;;;;1.63;1.20;;;;;;;8.38;84.25;100124.50;4904467;29;20099;-67
2023/10/13 07:31:15;;;;;;;3.90;1.30;;;;;;;8.60;83.63;100152.25;4895565;29;20068;-68
2023/10/13 07:33:41;;;;;;;4.30;1.40;;;;;;;8.32;84.46;100082.69;4896703;29;20040;-68
2023/10/13 07:36:28;;;;;;;2.90;1.20;;;;;;;8.85;84.81;100161.88;4896644;29;20045;-68
2023/10/13 07:41:41;;;;;;;1.90;1.20;;;;;;;8.97;85.48;100152.59;4896273;29;20040;-67
2023/10/13 07:44:07;;;;;;;2.43;1.60;;;;;;;8.69;85.43;100122.91;4895226;29;20051;-67
2023/10/13 07:46:35;;;;;;;5.93;1.37;;;;;;;8.80;85.71;100158.06;4896045;29;20432;-68
2023/10/13 07:49:10;;;;;;;1.93;1.10;;;;;;;8.63;86.35;100138.63;4896278;29;20048;-66
2023/10/13 07:51:57;;;;;;;2.80;1.27;;;;;;;8.70;85.94;100176.81;4899281;29;20293;-68
2023/10/13 07:54:22;;;;;;;2.03;1.23;;;;;;;8.76;84.21;100176.16;4899562;29;20151;-68
2023/10/13 07:56:48;;;;;;;4.20;1.13;;;;;;;8.89;84.52;100197.72;4899280;29;20535;-66
2023/10/13 07:59:16;;;;;;;1.73;1.23;;;;;;;8.96;84.73;100192.56;4899299;29;20512;-65
2023/10/13 08:01:42;;;;;;;7.55;1.42;;;;;;;8.99;83.29;100177.16;4898157;29;20095;-67
2023/10/13 08:04:12;;;;;;;2.47;1.00;;;;;;;9.15;83.60;100202.88;4899683;29;20132;-67
2023/10/13 08:06:41;;;;;;;5.33;1.30;;;;;;;8.95;83.42;100175.81;4900088;29;20466;-70
2023/10/13 08:09:30;;;;;;;4.77;1.60;;;;;;;9.32;83.98;100214.34;4899635;29;20040;-71
2023/10/13 08:11:54;;;;;;;4.23;1.20;;;;;;;9.46;83.92;100213.63;4899364;29;20040;-69
2023/10/13 08:14:23;;;;;;;3.33;1.60;;;;;;;9.65;82.63;100235.56;4899116;29;20079;-67
2023/10/13 08:16:59;;;;;;;2.03;1.43;;;;;;;9.75;77.36;100236.19;4899350;29;20049;-67
2023/10/13 08:20:11;;;;;;;13.20;1.27;;;;;;;9.53;78.11;100229.75;4899258;29;20044;-66
2023/10/13 08:32:36;;;;;;;2.30;1.23;;;;;;;9.82;79.63;100253.13;4899401;29;20057;-66
2023/10/13 08:38:13;;;;;;;3.73;1.20;;;;;;;9.80;80.86;100257.78;4898927;29;20040;-68
2023/10/13 08:41:25;;;;;;;3.20;1.30;;;;;;;9.73;81.29;100259.47;4895652;29;20515;-67
2023/10/13 08:43:43;;;;;;;1.43;0.90;;;;;;;9.64;81.29;100279.91;4897217;29;20052;-69
2023/10/13 08:46:09;;;;;;;4.23;2.10;;;;;;;9.51;82.94;100261.81;4898846;29;20108;-67
2023/10/13 08:48:36;;;;;;;6.07;1.40;;;;;;;9.49;82.27;100274.44;4898593;29;20531;-69
2023/10/13 08:51:12;;;;;;;3.43;1.13;;;;;;;9.50;82.17;100276.09;4898381;29;20048;-68
2023/10/13 08:53:57;;;;;;;2.47;1.30;;;;;;;9.52;82.01;100274.09;4898869;29;20127;-69
2023/10/13 08:56:43;;;;;;;4.00;1.20;;;;;;;9.46;81.54;100279.25;4898576;29;20123;-69
2023/10/13 08:59:09;;;;;;;4.83;1.30;;;;;;;9.32;83.10;100267.47;4898337;29;20076;-69
2023/10/13 09:04:20;;;;;;;1.50;1.13;;;;;;;9.35;82.98;100279.59;4898293;29;20084;-67
2023/10/13 09:15:05;;;;;;;7.03;1.50;;;;;;;9.82;82.19;100277.88;4898190;29;20040;-69
2023/10/13 09:17:42;;;;;;;4.70;1.50;;;;;;;9.99;81.46;100294.63;4898236;29;20029;-67
2023/10/13 09:25:35;;;;;;;2.67;1.17;;;;;;;9.94;80.80;100326.25;4898247;29;20045;-69
2023/10/13 09:28:15;;;;;;;2.07;1.00;;;;;;;9.89;80.85;100320.59;4899517;29;20040;-66
2023/10/13 09:30:49;;;;;;;3.50;1.00;;;;;;;9.86;80.94;100323.59;4900040;29;20400;-68
2023/10/13 09:33:32;;;;;;;3.30;1.13;;;;;;;9.90;80.21;100325.75;4901850;29;20131;-68
2023/10/13 09:36:06;;;;;;;2.73;1.33;;;;;;;9.93;82.30;100341.38;4899444;29;20428;-66
2023/10/13 09:38:40;;;;;;;3.53;1.30;;;;;;;9.95;82.45;100341.22;4898992;29;20055;-68
2023/10/13 09:41:17;;;;;;;2.13;1.13;;;;;;;9.95;82.65;100338.53;4899417;29;20046;-69
2023/10/13 09:43:46;;;;;;;2.13;1.48;;;;;;;10.00;84.03;100346.84;4899535;29;20084;-71
2023/10/13 09:46:23;;;;;;;2.60;1.73;;;;;;;10.02;85.13;100326.22;4898676;29;20044;-67
2023/10/13 09:49:04;;;;;;;1.93;1.20;;;;;;;10.22;84.64;100330.22;4897788;29;20127;-69
2023/10/13 09:51:33;;;;;;;5.00;1.30;;;;;;;10.36;84.11;100341.13;4897813;29;20060;-69
2023/10/13 09:54:11;;;;;;;2.13;1.40;;;;;;;10.12;85.99;100332.22;4897789;29;20060;-68
2023/10/13 09:56:55;;;;;;;2.08;1.40;;;;;;;9.92;87.38;100339.72;4898431;29;20028;-68
2023/10/13 09:59:34;;;;;;;1.77;1.10;;;;;;;10.05;87.11;100333.88;4897845;29;20067;-68
2023/10/13 10:02:08;;;;;;;1.58;1.27;;;;;;;10.30;87.21;100341.81;4897585;29;20053;-70
2023/10/13 10:04:44;;;;;;;2.80;1.50;;;;;;;10.30;86.60;100368.44;4914516;29;20051;-67
2023/10/13 10:07:10;;;;;;;2.73;1.33;;;;;;;10.27;87.74;100368.78;4910718;29;20088;-67
2023/10/13 10:09:38;;;;;;;1.30;0.97;;;;;;;10.27;87.43;100368.78;4906380;29;20088;-67
2023/10/13 10:12:40;;;;;;;2.95;1.38;;;;;;;10.55;87.68;100362.03;4918007;29;20040;-73
2023/10/13 10:15:33;;;;;;;1.20;1.10;;;;;;;10.72;85.70;100370.81;4917125;29;20065;-70
2023/10/13 10:18:03;;;;;;;2.13;1.30;;;;;;;10.77;85.80;100381.78;4916255;29;20031;-69
2023/10/13 10:20:44;;;;;;;1.70;1.53;;;;;;;10.78;87.06;100389.59;4918169;29;20092;-68
2023/10/13 10:23:21;;;;;;;1.53;0.90;;;;;;;10.71;86.61;100393.94;4905796;29;20033;-69
2023/10/13 10:25:50;;;;;;;1.93;1.40;;;;;;;10.62;86.47;100384.31;4898866;29;20040;-68
2023/10/13 10:28:15;;;;;;;2.03;1.27;;;;;;;10.91;85.88;100405.00;4905176;29;20040;-69
2023/10/13 10:30:43;;;;;;;3.27;1.10;;;;;;;11.12;83.50;100409.75;4902138;29;20040;-69
2023/10/13 10:33:13;;;;;;;3.80;1.47;;;;;;;11.09;81.52;100412.75;4902045;29;20043;-69
2023/10/13 10:35:44;;;;;;;1.60;1.50;;;;;;;11.00;80.92;100413.81;4900494;29;20056;-68
2023/10/13 10:38:23;;;;;;;2.67;1.13;;;;;;;10.83;81.50;100389.06;4899100;29;20406;-66
2023/10/13 10:41:13;;;;;;;2.70;1.13;;;;;;;10.70;82.97;100412.78;4896998;29;20587;-68
2023/10/13 10:43:42;;;;;;;3.47;1.20;;;;;;;10.45;84.19;100404.00;4897098;29;20045;-67
2023/10/13 10:46:12;;;;;;;2.93;1.13;;;;;;;10.26;85.63;100407.88;4895531;29;20045;-67
2023/10/13 10:48:42;;;;;;;3.23;1.47;;;;;;;10.10;85.90;100408.69;4897127;29;20040;-67
2023/10/13 10:51:22;;;;;;;3.23;1.27;;;;;;;9.88;86.82;100407.56;4896985;29;20056;-66
2023/10/13 10:53:51;;;;;;;2.40;1.00;;;;;;;9.21;87.29;100299.69;4896918;29;20063;-69
2023/10/13 10:56:36;;;;;;;1.57;0.90;;;;;;;10.17;85.93;100395.56;4897011;29;20040;-69
2023/10/13 10:59:04;;;;;;;3.43;1.10;;;;;;;10.68;84.50;100420.91;4895702;29;20556;-69
2023/10/13 11:01:38;;;;;;;3.30;1.20;;;;;;;10.60;82.76;100428.09;4896897;29;20072;-69
2023/10/13 11:04:33;;;;;;;4.50;1.27;;;;;;;10.52;84.85;100431.63;4896876;29;20060;-68
2023/10/13 11:06:56;;;;;;;1.77;1.13;;;;;;;10.36;86.72;100426.31;4896627;29;20036;-65
2023/10/13 11:09:36;;;;;;;1.80;1.00;;;;;;;10.46;88.15;100427.81;4896544;29;20076;-69
2023/10/13 11:12:15;;;;;;;1.93;1.00;;;;;;;10.56;87.08;100438.25;4896928;29;20123;-70
2023/10/13 11:14:48;;;;;;;;;;;;;;;10.47;87.95;100452.59;4897198;29;20108;-67
2023/10/13 11:17:26;;;;;;;2.07;1.37;;;;;;;10.19;88.30;100393.56;4896694;29;20409;-66
2023/10/13 11:19:52;;;;;;;1.55;1.20;;;;;;;10.57;87.05;100447.91;4904051;29;20143;-66
2023/10/13 11:22:42;;;;;;;3.10;1.20;;;;;;;10.47;86.93;100424.13;4903267;29;20256;-68
2023/10/13 11:25:11;;;;;;;3.77;1.10;;;;;;;10.58;86.61;100449.56;4910338;29;20131;-66
2023/10/13 11:30:14;;;;;;;3.33;1.27;;;;;;;10.34;85.15;100399.03;4911926;29;20048;-66
2023/10/13 11:32:42;;;;;;;4.03;1.30;;;;;;;10.60;83.79;100434.25;4906707;29;20036;-65
2023/10/13 11:35:20;;;;;;;2.67;1.30;;;;;;;10.93;82.98;100460.78;4910499;29;20091;-66
2023/10/13 11:38:03;;;;;;;2.05;1.02;;;;;;;11.01;81.33;100471.44;4911342;29;20475;-67
2023/10/13 11:41:06;;;;;;;2.80;1.30;;;;;;;10.79;81.96;100468.50;4908418;29;20055;-68
2023/10/13 11:43:52;;;;;;;5.57;1.20;;;;;;;10.71;83.22;100489.84;4909196;29;20036;-70
2023/10/13 11:47:16;;;;;;;2.38;0.90;;;;;;;10.61;83.47;100478.50;4909614;29;20040;-66
2023/10/13 11:51:47;;;;;;;1.90;1.13;;;;;;;10.76;84.68;100479.50;4908361;29;20080;-64
2023/10/13 11:54:17;;;;;;;1.50;1.20;;;;;;;10.93;84.48;100503.41;4905490;29;20488;-64
2023/10/13 11:56:47;;;;;;;1.30;1.20;;;;;;;10.93;84.10;100488.25;4890498;29;20036;-68
2023/10/13 11:59:24;;;;;;;1.57;1.20;;;;;;;11.21;83.87;100493.97;4909019;29;20072;-68
2023/10/13 12:04:58;;;;;;;5.00;1.50;;;;;;;10.99;83.26;100463.59;4907592;29;20037;-68
2023/10/13 12:07:39;;;;;;;3.33;1.30;;;;;;;11.08;84.61;100513.19;4911328;29;20040;-66
2023/10/13 12:13:05;;;;;;;2.47;1.40;;;;;;;10.69;87.85;100505.13;4917822;29;20295;-68
2023/10/13 12:15:48;;;;;;;2.53;1.30;;;;;;;10.69;87.84;100523.78;4914485;29;20471;-65
2023/10/13 12:18:15;;;;;;;1.50;1.37;;;;;;;10.65;87.91;100501.13;4906001;29;20041;-69
2023/10/13 12:20:45;;;;;;;1.63;1.30;;;;;;;10.66;87.66;100507.28;4906708;29;20100;-69
2023/10/13 12:23:17;;;;;;;3.77;1.20;;;;;;;10.51;88.27;100504.50;4910017;29;20040;-70
2023/10/13 12:26:00;;;;;;;6.07;1.87;;;;;;;10.43;89.72;100529.31;4911584;29;20044;-71
2023/10/13 12:28:26;;;;;;;2.80;1.30;;;;;;;10.21;91.07;100504.19;4912704;29;20052;-72
2023/10/13 12:30:57;;;;;;;6.27;2.33;;;;;;;10.02;93.01;100493.84;4913685;29;20024;-70
2023/10/13 12:33:25;;;;;;;3.23;1.30;;;;;;;9.57;94.47;100460.53;4915692;29;20032;-67
2023/10/13 12:36:09;;;;;;;4.80;1.60;;;;;;;9.91;95.95;100520.78;4921421;29;20044;-67
2023/10/13 12:38:37;;;;;;;1.47;1.30;;;;;;;9.77;96.99;100527.53;4919674;29;20052;-66
2023/10/13 12:49:52;;;;;;;2.47;1.20;;;;;;;10.01;96.01;100541.88;4914756;29;20045;-70
2023/10/13 12:52:25;;;;;;;2.40;1.53;;;;;;;10.09;94.59;100548.03;4900215;29;20053;-69
2023/10/13 12:57:27;;;;;;;4.10;1.13;;;;;;;10.19;95.11;100527.44;4899539;29;20059;-74
2023/10/13 12:59:53;;;;;;;4.77;1.50;;;;;;;10.54;93.46;100544.09;4903602;29;20036;-72
2023/10/13 13:02:27;;;;;;;3.13;2.00;;;;;;;10.74;91.32;100537.44;4913829;29;20044;-67
2023/10/13 13:04:57;;;;;;;2.97;1.60;;;;;;;10.64;89.83;100534.09;4908723;29;20053;-68
2023/10/13 13:07:29;;;;;;;1.53;1.20;;;;;;;10.42;91.05;100537.47;4897593;29;20072;-69
2023/10/13 13:10:00;;;;;;;4.33;1.90;;;;;;;10.33;92.10;100533.13;4897335;29;20045;-71
2023/10/13 13:12:28;;;;;;;3.83;1.17;;;;;;;10.45;91.43;100542.47;4898291;29;20096;-68
2023/10/13 13:14:55;;;;;;;4.40;1.57;;;;;;;10.47;89.83;100529.81;4898344;29;20043;-68
2023/10/13 13:17:26;;;;;;;3.53;1.50;;;;;;;10.58;89.88;100516.13;4899240;29;20040;-65
2023/10/13 13:19:51;;;;;;;1.33;1.20;;;;;;;10.49;89.62;100511.84;4898743;29;20048;-67
2023/10/13 13:22:17;;;;;;;4.37;1.47;;;;;;;10.37;90.62;100534.44;4881413;29;20047;-69
2023/10/13 13:24:44;;;;;;;2.60;1.13;;;;;;;9.96;92.47;100499.81;4896875;29;20040;-67
2023/10/13 13:27:15;;;;;;;6.60;1.70;;;;;;;9.85;94.93;100535.56;4898122;29;20036;-67
2023/10/13 13:29:43;;;;;;;5.03;2.83;;;;;;;9.68;96.37;100527.69;4898088;29;20067;-67
2023/10/13 13:32:23;;;;;;;4.07;1.27;;;;;;;9.42;97.06;100501.19;4896827;29;20048;-66
2023/10/13 13:35:07;;;;;;;3.03;1.33;;;;;;;9.57;98.80;100542.97;4898933;29;20068;-66
2023/10/13 13:37:34;;;;;;;2.73;1.33;;;;;;;9.40;99.37;100524.44;4898240;29;20118;-68
2023/10/13 13:40:24;;;;;;;2.53;2.00;;;;;;;9.43;99.96;100546.22;4897707;29;20596;-68
2023/10/13 13:42:49;;;;;;;1.97;1.20;;;;;;;9.23;100.00;100519.06;4901607;29;20131;-65
2023/10/13 13:45:21;;;;;;;3.60;1.30;;;;;;;9.25;100.00;100537.50;4899200;29;20148;-66
2023/10/13 13:47:53;;;;;;;3.73;1.60;;;;;;;9.29;100.00;100549.50;4896607;29;20044;-70
2023/10/13 13:50:31;;;;;;;4.90;1.50;;;;;;;9.25;100.00;100550.78;4896290;29;20061;-66
2023/10/13 13:52:57;;;;;;;2.75;1.40;;;;;;;9.16;100.00;100539.28;4897917;29;20052;-67
2023/10/13 13:55:28;;;;;;;2.30;1.33;;;;;;;9.22;100.00;100543.13;4897716;29;20048;-67
2023/10/13 13:57:57;;;;;;;8.13;2.77;;;;;;;9.38;100.00;100537.91;4902263;29;20067;-67
2023/10/13 14:00:36;;;;;;;6.77;1.67;;;;;;;9.52;100.00;100557.72;4896557;29;20408;-69
2023/10/13 14:03:12;;;;;;;4.43;2.80;;;;;;;9.58;100.00;100565.91;4897489;29;20047;-67
2023/10/13 14:05:42;;;;;;;2.00;1.20;;;;;;;9.49;100.00;100558.03;4905861;29;20036;-66
2023/10/13 14:08:11;;;;;;;5.43;1.80;;;;;;;9.52;100.00;100565.69;4908932;29;20070;-65
2023/10/13 14:16:16;;;;;;;5.07;2.10;;;;;;;9.63;100.00;100579.53;4905404;29;20074;-67
2023/10/13 14:18:50;;;;;;;1.87;1.33;;;;;;;9.61;100.00;100560.25;4904669;29;20120;-65
2023/10/13 14:21:19;;;;;;;2.63;1.67;;;;;;;9.77;100.00;100571.91;4905515;29;20055;-68
2023/10/13 14:23:49;;;;;;;5.47;2.67;;;;;;;9.72;100.00;100576.91;4910927;29;20086;-65
2023/10/13 14:26:20;;;;;;;5.27;2.20;;;;;;;9.47;100.00;100552.03;4917099;29;20131;-65
2023/10/13 14:29:00;;;;;;;4.53;1.90;;;;;;;9.41;100.00;100565.97;4917710;29;20575;-65
2023/10/13 14:31:27;;;;;;;5.27;1.90;;;;;;;9.25;100.00;100574.69;4917475;29;20044;-69
2023/10/13 14:33:53;;;;;;;4.20;1.87;;;;;;;8.98;100.00;100542.03;4917520;29;20040;-63
2023/10/13 14:36:19;;;;;;;2.03;1.80;;;;;;;8.95;100.00;100566.22;4919072;29;20594;-68
2023/10/13 14:38:51;;;;;;;6.90;2.37;;;;;;;8.88;100.00;100557.22;4918813;29;20055;-68
2023/10/13 14:41:18;;;;;;;3.67;1.87;;;;;;;8.80;100.00;100554.53;4918071;29;20104;-66
2023/10/13 14:43:50;;;;;;;2.43;1.30;;;;;;;8.68;100.00;100546.00;4918595;29;20043;-67
2023/10/13 14:46:16;;;;;;;3.33;1.93;;;;;;;8.63;100.00;100550.09;4920035;29;20063;-65
2023/10/13 14:48:48;;;;;;;5.20;2.90;;;;;;;8.63;100.00;100547.44;4919473;29;20032;-66
2023/10/13 14:51:17;;;;;;;3.30;2.40;;;;;;;8.65;100.00;100550.75;4915081;29;20490;-67
2023/10/13 14:53:47;;;;;;;3.77;1.80;;;;;;;8.61;100.00;100534.31;4918983;29;20055;-67
2023/10/13 14:56:17;;;;;;;5.37;1.77;;;;;;;8.82;100.00;100551.72;4922265;29;20088;-64
2023/10/13 14:58:43;;;;;;;3.80;1.90;;;;;;;8.90;100.00;100552.59;4918858;29;20040;-65
2023/10/13 15:01:16;;;;;;;4.20;1.80;;;;;;;8.94;100.00;100540.66;4923642;29;20125;-67
2023/10/13 15:03:45;;;;;;;7.00;2.53;;;;;;;9.11;100.00;100552.22;4922050;29;20048;-68
2023/10/13 15:06:18;;;;;;;6.07;2.30;;;;;;;9.23;100.00;100560.75;4921601;29;20040;-67
2023/10/13 15:08:48;;;;;;;5.37;2.00;;;;;;;9.21;100.00;100552.09;4923153;29;20044;-66
2023/10/13 15:11:18;;;;;;;6.57;3.70;;;;;;;9.26;100.00;100544.50;4920962;29;20040;-68
2023/10/13 15:13:44;;;;;;;6.27;3.43;;;;;;;9.28;100.00;100547.84;4924767;29;20031;-66